sensor_id;sensor_type;location;lat;lon;timestamp;P1;durP1;ratioP1;P2;durP2;ratioP2
27025;SDS011;14565;48.626;8.978;2023-05-07T00:00:37;4.28;;;2.50;;
27025;SDS011;14565;48.626;8.978;2023-05-07T00:03:03;5.97;;;2.88;;
27025;SDS011;14565;48.626;8.978;2023-05-07T00:05:29;4.28;;;2.70;;
27025;SDS011;14565;48.626;8.978;2023-05-07T00:07:55;3.05;;;2.75;;
27025;SDS011;14565;48.626;8.978;2023-05-07T00:10:20;3.42;;;2.60;;
27025;SDS011;14565;48.626;8.978;2023-05-07T00:12:46;5.82;;;2.78;;
27025;SDS011;14565;48.626;8.978;2023-05-07T00:15:12;4.18;;;2.85;;
27025;SDS011;14565;48.626;8.978;2023-05-07T00:17:37;4.97;;;2.72;;
27025;SDS011;14565;48.626;8.978;2023-05-07T00:20:03;5.05;;;2.63;;
27025;SDS011;14565;48.626;8.978;2023-05-07T00:22:30;6.70;;;3.15;;
27025;SDS011;14565;48.626;8.978;2023-05-07T00:24:57;4.40;;;3.33;;
27025;SDS011;14565;48.626;8.978;2023-05-07T00:27:23;8.43;;;4.18;;
27025;SDS011;14565;48.626;8.978;2023-05-07T00:29:49;7.30;;;3.47;;
27025;SDS011;14565;48.626;8.978;2023-05-07T00:32:15;4.32;;;3.00;;
27025;SDS011;14565;48.626;8.978;2023-05-07T00:34:40;4.75;;;2.85;;
27025;SDS011;14565;48.626;8.978;2023-05-07T00:37:06;3.80;;;2.90;;
27025;SDS011;14565;48.626;8.978;2023-05-07T00:39:35;3.85;;;2.97;;
27025;SDS011;14565;48.626;8.978;2023-05-07T00:42:01;5.20;;;4.68;;
27025;SDS011;14565;48.626;8.978;2023-05-07T00:44:27;4.35;;;3.53;;
27025;SDS011;14565;48.626;8.978;2023-05-07T00:46:53;4.55;;;3.25;;
27025;SDS011;14565;48.626;8.978;2023-05-07T00:49:19;4.80;;;2.85;;
27025;SDS011;14565;48.626;8.978;2023-05-07T00:51:45;4.93;;;3.80;;
27025;SDS011;14565;48.626;8.978;2023-05-07T00:54:12;6.38;;;5.32;;
27025;SDS011;14565;48.626;8.978;2023-05-07T00:56:38;6.78;;;4.93;;
27025;SDS011;14565;48.626;8.978;2023-05-07T00:59:05;6.85;;;4.18;;
27025;SDS011;14565;48.626;8.978;2023-05-07T01:01:31;4.05;;;3.40;;
27025;SDS011;14565;48.626;8.978;2023-05-07T01:03:57;7.18;;;3.38;;
27025;SDS011;14565;48.626;8.978;2023-05-07T01:06:23;5.47;;;3.50;;
27025;SDS011;14565;48.626;8.978;2023-05-07T01:08:52;4.30;;;2.80;;
27025;SDS011;14565;48.626;8.978;2023-05-07T01:11:21;5.47;;;3.50;;
27025;SDS011;14565;48.626;8.978;2023-05-07T01:13:50;9.38;;;4.68;;
27025;SDS011;14565;48.626;8.978;2023-05-07T01:16:19;6.53;;;4.43;;
27025;SDS011;14565;48.626;8.978;2023-05-07T01:18:46;8.45;;;5.57;;
27025;SDS011;14565;48.626;8.978;2023-05-07T01:21:13;9.55;;;5.90;;
27025;SDS011;14565;48.626;8.978;2023-05-07T01:23:41;9.23;;;3.83;;
27025;SDS011;14565;48.626;8.978;2023-05-07T01:26:07;6.93;;;4.13;;
27025;SDS011;14565;48.626;8.978;2023-05-07T01:28:33;12.05;;;7.07;;
27025;SDS011;14565;48.626;8.978;2023-05-07T01:31:02;46.72;;;23.85;;
27025;SDS011;14565;48.626;8.978;2023-05-07T01:33:31;24.05;;;12.82;;
27025;SDS011;14565;48.626;8.978;2023-05-07T01:36:00;9.68;;;5.25;;
27025;SDS011;14565;48.626;8.978;2023-05-07T01:38:28;5.05;;;3.92;;
27025;SDS011;14565;48.626;8.978;2023-05-07T01:40:55;5.53;;;3.90;;
27025;SDS011;14565;48.626;8.978;2023-05-07T01:43:21;5.97;;;3.70;;
27025;SDS011;14565;48.626;8.978;2023-05-07T01:45:47;5.63;;;3.30;;
27025;SDS011;14565;48.626;8.978;2023-05-07T01:48:14;9.27;;;5.15;;
27025;SDS011;14565;48.626;8.978;2023-05-07T01:50:40;12.10;;;7.55;;
27025;SDS011;14565;48.626;8.978;2023-05-07T01:53:08;17.43;;;9.40;;
27025;SDS011;14565;48.626;8.978;2023-05-07T01:55:33;16.08;;;7.80;;
27025;SDS011;14565;48.626;8.978;2023-05-07T01:57:59;5.15;;;3.60;;
27025;SDS011;14565;48.626;8.978;2023-05-07T02:00:25;4.90;;;3.67;;
27025;SDS011;14565;48.626;8.978;2023-05-07T02:02:50;5.05;;;4.35;;
27025;SDS011;14565;48.626;8.978;2023-05-07T02:05:17;10.43;;;6.55;;
27025;SDS011;14565;48.626;8.978;2023-05-07T02:07:43;5.93;;;5.28;;
27025;SDS011;14565;48.626;8.978;2023-05-07T02:10:09;6.88;;;5.30;;
27025;SDS011;14565;48.626;8.978;2023-05-07T02:12:35;8.57;;;5.70;;
27025;SDS011;14565;48.626;8.978;2023-05-07T02:15:00;9.07;;;6.10;;
27025;SDS011;14565;48.626;8.978;2023-05-07T02:17:27;10.77;;;6.05;;
27025;SDS011;14565;48.626;8.978;2023-05-07T02:19:56;8.65;;;5.88;;
27025;SDS011;14565;48.626;8.978;2023-05-07T02:22:22;9.32;;;5.10;;
27025;SDS011;14565;48.626;8.978;2023-05-07T02:24:48;8.25;;;5.18;;
27025;SDS011;14565;48.626;8.978;2023-05-07T02:27:14;7.38;;;4.20;;
27025;SDS011;14565;48.626;8.978;2023-05-07T02:29:39;5.18;;;4.10;;
27025;SDS011;14565;48.626;8.978;2023-05-07T02:32:05;5.07;;;4.07;;
27025;SDS011;14565;48.626;8.978;2023-05-07T02:34:31;5.13;;;3.47;;
27025;SDS011;14565;48.626;8.978;2023-05-07T02:36:57;4.20;;;3.35;;
27025;SDS011;14565;48.626;8.978;2023-05-07T02:39:22;4.32;;;3.22;;
27025;SDS011;14565;48.626;8.978;2023-05-07T02:41:48;5.72;;;3.15;;
27025;SDS011;14565;48.626;8.978;2023-05-07T02:44:14;4.45;;;2.78;;
27025;SDS011;14565;48.626;8.978;2023-05-07T02:46:39;7.90;;;3.30;;
27025;SDS011;14565;48.626;8.978;2023-05-07T02:49:05;4.45;;;3.22;;
27025;SDS011;14565;48.626;8.978;2023-05-07T02:51:31;4.78;;;2.53;;
27025;SDS011;14565;48.626;8.978;2023-05-07T02:53:57;6.15;;;3.00;;
27025;SDS011;14565;48.626;8.978;2023-05-07T02:56:22;4.35;;;3.35;;
27025;SDS011;14565;48.626;8.978;2023-05-07T02:58:48;6.93;;;2.90;;
27025;SDS011;14565;48.626;8.978;2023-05-07T03:01:13;6.07;;;3.15;;
27025;SDS011;14565;48.626;8.978;2023-05-07T03:03:39;4.22;;;3.25;;
27025;SDS011;14565;48.626;8.978;2023-05-07T03:06:05;3.95;;;3.22;;
27025;SDS011;14565;48.626;8.978;2023-05-07T03:08:32;5.75;;;3.15;;
27025;SDS011;14565;48.626;8.978;2023-05-07T03:10:57;5.38;;;3.45;;
27025;SDS011;14565;48.626;8.978;2023-05-07T03:13:23;4.60;;;3.17;;
27025;SDS011;14565;48.626;8.978;2023-05-07T03:15:49;4.35;;;3.35;;
27025;SDS011;14565;48.626;8.978;2023-05-07T03:18:15;4.43;;;3.08;;
27025;SDS011;14565;48.626;8.978;2023-05-07T03:20:40;5.13;;;3.13;;
27025;SDS011;14565;48.626;8.978;2023-05-07T03:23:06;4.38;;;3.15;;
27025;SDS011;14565;48.626;8.978;2023-05-07T03:25:32;5.88;;;3.40;;
27025;SDS011;14565;48.626;8.978;2023-05-07T03:27:58;5.68;;;3.67;;
27025;SDS011;14565;48.626;8.978;2023-05-07T03:30:24;7.30;;;4.35;;
27025;SDS011;14565;48.626;8.978;2023-05-07T03:32:50;4.63;;;3.92;;
27025;SDS011;14565;48.626;8.978;2023-05-07T03:35:15;6.60;;;4.32;;
27025;SDS011;14565;48.626;8.978;2023-05-07T03:37:41;6.03;;;4.22;;
27025;SDS011;14565;48.626;8.978;2023-05-07T03:40:07;7.22;;;4.30;;
27025;SDS011;14565;48.626;8.978;2023-05-07T03:42:35;5.00;;;4.30;;
27025;SDS011;14565;48.626;8.978;2023-05-07T03:45:00;5.95;;;4.03;;
27025;SDS011;14565;48.626;8.978;2023-05-07T03:47:26;5.70;;;4.22;;
27025;SDS011;14565;48.626;8.978;2023-05-07T03:49:52;7.85;;;3.97;;
27025;SDS011;14565;48.626;8.978;2023-05-07T03:52:19;7.28;;;3.72;;
27025;SDS011;14565;48.626;8.978;2023-05-07T03:54:48;5.18;;;3.40;;
27025;SDS011;14565;48.626;8.978;2023-05-07T03:57:14;5.97;;;3.70;;
27025;SDS011;14565;48.626;8.978;2023-05-07T03:59:40;4.60;;;3.50;;
27025;SDS011;14565;48.626;8.978;2023-05-07T04:02:06;5.78;;;3.33;;
27025;SDS011;14565;48.626;8.978;2023-05-07T04:04:31;8.20;;;3.70;;
27025;SDS011;14565;48.626;8.978;2023-05-07T04:06:58;5.38;;;3.50;;
27025;SDS011;14565;48.626;8.978;2023-05-07T04:09:24;5.88;;;3.55;;
27025;SDS011;14565;48.626;8.978;2023-05-07T04:11:50;6.40;;;3.70;;
27025;SDS011;14565;48.626;8.978;2023-05-07T04:14:16;4.82;;;3.70;;
27025;SDS011;14565;48.626;8.978;2023-05-07T04:16:42;4.43;;;3.72;;
27025;SDS011;14565;48.626;8.978;2023-05-07T04:19:07;6.93;;;3.22;;
27025;SDS011;14565;48.626;8.978;2023-05-07T04:21:33;7.35;;;4.68;;
27025;SDS011;14565;48.626;8.978;2023-05-07T04:23:59;8.18;;;4.70;;
27025;SDS011;14565;48.626;8.978;2023-05-07T04:26:24;5.45;;;4.55;;
27025;SDS011;14565;48.626;8.978;2023-05-07T04:28:50;6.35;;;4.63;;
27025;SDS011;14565;48.626;8.978;2023-05-07T04:31:16;5.88;;;4.53;;
27025;SDS011;14565;48.626;8.978;2023-05-07T04:33:41;10.52;;;4.72;;
27025;SDS011;14565;48.626;8.978;2023-05-07T04:36:07;7.05;;;4.25;;
27025;SDS011;14565;48.626;8.978;2023-05-07T04:38:33;7.15;;;4.60;;
27025;SDS011;14565;48.626;8.978;2023-05-07T04:41:05;6.32;;;4.55;;
27025;SDS011;14565;48.626;8.978;2023-05-07T04:43:31;7.28;;;4.20;;
27025;SDS011;14565;48.626;8.978;2023-05-07T04:45:57;6.03;;;4.30;;
27025;SDS011;14565;48.626;8.978;2023-05-07T04:48:22;7.47;;;4.50;;
27025;SDS011;14565;48.626;8.978;2023-05-07T04:50:51;5.03;;;4.53;;
27025;SDS011;14565;48.626;8.978;2023-05-07T04:53:17;5.85;;;3.97;;
27025;SDS011;14565;48.626;8.978;2023-05-07T04:55:44;3.92;;;3.30;;
27025;SDS011;14565;48.626;8.978;2023-05-07T04:58:10;5.05;;;3.08;;
27025;SDS011;14565;48.626;8.978;2023-05-07T05:00:37;4.35;;;2.90;;
27025;SDS011;14565;48.626;8.978;2023-05-07T05:03:03;4.03;;;2.72;;
27025;SDS011;14565;48.626;8.978;2023-05-07T05:05:30;3.95;;;2.42;;
27025;SDS011;14565;48.626;8.978;2023-05-07T05:07:56;4.93;;;2.60;;
27025;SDS011;14565;48.626;8.978;2023-05-07T05:10:21;3.20;;;2.50;;
27025;SDS011;14565;48.626;8.978;2023-05-07T05:12:47;4.60;;;2.45;;
27025;SDS011;14565;48.626;8.978;2023-05-07T05:15:13;2.55;;;2.35;;
27025;SDS011;14565;48.626;8.978;2023-05-07T05:17:39;3.00;;;2.60;;
27025;SDS011;14565;48.626;8.978;2023-05-07T05:20:05;4.28;;;2.42;;
27025;SDS011;14565;48.626;8.978;2023-05-07T05:22:31;5.78;;;2.38;;
27025;SDS011;14565;48.626;8.978;2023-05-07T05:24:57;2.70;;;2.20;;
27025;SDS011;14565;48.626;8.978;2023-05-07T05:27:23;4.82;;;2.70;;
27025;SDS011;14565;48.626;8.978;2023-05-07T05:29:49;4.20;;;2.70;;
27025;SDS011;14565;48.626;8.978;2023-05-07T05:32:14;7.18;;;3.78;;
27025;SDS011;14565;48.626;8.978;2023-05-07T05:34:40;6.60;;;3.15;;
27025;SDS011;14565;48.626;8.978;2023-05-07T05:37:06;3.55;;;2.80;;
27025;SDS011;14565;48.626;8.978;2023-05-07T05:39:32;5.63;;;3.33;;
27025;SDS011;14565;48.626;8.978;2023-05-07T05:41:57;4.30;;;3.20;;
27025;SDS011;14565;48.626;8.978;2023-05-07T05:44:23;4.97;;;3.70;;
27025;SDS011;14565;48.626;8.978;2023-05-07T05:46:49;5.78;;;3.60;;
27025;SDS011;14565;48.626;8.978;2023-05-07T05:49:15;6.60;;;3.72;;
27025;SDS011;14565;48.626;8.978;2023-05-07T05:55:15;4.20;;;3.50;;
27025;SDS011;14565;48.626;8.978;2023-05-07T05:57:56;5.05;;;3.33;;
27025;SDS011;14565;48.626;8.978;2023-05-07T06:00:37;6.38;;;2.90;;
27025;SDS011;14565;48.626;8.978;2023-05-07T06:03:26;3.90;;;2.95;;
27025;SDS011;14565;48.626;8.978;2023-05-07T06:05:52;3.53;;;2.90;;
27025;SDS011;14565;48.626;8.978;2023-05-07T06:08:17;5.55;;;3.03;;
27025;SDS011;14565;48.626;8.978;2023-05-07T06:10:49;5.05;;;3.08;;
27025;SDS011;14565;48.626;8.978;2023-05-07T06:13:24;4.20;;;3.60;;
27025;SDS011;14565;48.626;8.978;2023-05-07T06:15:55;4.60;;;3.63;;
27025;SDS011;14565;48.626;8.978;2023-05-07T06:18:21;4.53;;;3.40;;
27025;SDS011;14565;48.626;8.978;2023-05-07T06:20:47;4.93;;;3.53;;
27025;SDS011;14565;48.626;8.978;2023-05-07T06:23:13;3.60;;;3.30;;
27025;SDS011;14565;48.626;8.978;2023-05-07T06:25:43;3.45;;;3.15;;
27025;SDS011;14565;48.626;8.978;2023-05-07T06:28:13;4.85;;;3.30;;
27025;SDS011;14565;48.626;8.978;2023-05-07T06:30:39;5.60;;;4.38;;
27025;SDS011;14565;48.626;8.978;2023-05-07T06:33:05;4.32;;;3.88;;
27025;SDS011;14565;48.626;8.978;2023-05-07T06:35:31;5.30;;;4.00;;
27025;SDS011;14565;48.626;8.978;2023-05-07T06:37:56;5.68;;;4.03;;
27025;SDS011;14565;48.626;8.978;2023-05-07T06:40:22;4.57;;;3.13;;
27025;SDS011;14565;48.626;8.978;2023-05-07T06:42:48;3.95;;;3.10;;
27025;SDS011;14565;48.626;8.978;2023-05-07T06:45:14;6.78;;;3.50;;
27025;SDS011;14565;48.626;8.978;2023-05-07T06:47:39;6.20;;;3.30;;
27025;SDS011;14565;48.626;8.978;2023-05-07T06:50:05;7.13;;;3.15;;
27025;SDS011;14565;48.626;8.978;2023-05-07T06:52:32;4.25;;;3.50;;
27025;SDS011;14565;48.626;8.978;2023-05-07T06:54:57;5.68;;;3.40;;
27025;SDS011;14565;48.626;8.978;2023-05-07T06:57:25;4.20;;;3.08;;
27025;SDS011;14565;48.626;8.978;2023-05-07T06:59:50;4.53;;;3.20;;
27025;SDS011;14565;48.626;8.978;2023-05-07T07:02:16;5.13;;;3.17;;
27025;SDS011;14565;48.626;8.978;2023-05-07T07:04:42;3.45;;;3.10;;
27025;SDS011;14565;48.626;8.978;2023-05-07T07:07:08;4.38;;;3.13;;
27025;SDS011;14565;48.626;8.978;2023-05-07T07:09:33;4.30;;;3.58;;
27025;SDS011;14565;48.626;8.978;2023-05-07T07:11:59;5.30;;;3.78;;
27025;SDS011;14565;48.626;8.978;2023-05-07T07:14:25;4.85;;;3.05;;
27025;SDS011;14565;48.626;8.978;2023-05-07T07:16:58;3.38;;;2.58;;
27025;SDS011;14565;48.626;8.978;2023-05-07T07:19:27;6.90;;;2.95;;
27025;SDS011;14565;48.626;8.978;2023-05-07T07:21:52;3.63;;;3.00;;
27025;SDS011;14565;48.626;8.978;2023-05-07T07:24:18;6.15;;;3.17;;
27025;SDS011;14565;48.626;8.978;2023-05-07T07:26:46;3.28;;;2.67;;
27025;SDS011;14565;48.626;8.978;2023-05-07T07:29:12;3.67;;;2.50;;
27025;SDS011;14565;48.626;8.978;2023-05-07T07:31:38;5.28;;;2.65;;
27025;SDS011;14565;48.626;8.978;2023-05-07T07:34:04;4.10;;;2.50;;
27025;SDS011;14565;48.626;8.978;2023-05-07T07:36:30;4.50;;;2.80;;
27025;SDS011;14565;48.626;8.978;2023-05-07T07:38:56;3.10;;;2.67;;
27025;SDS011;14565;48.626;8.978;2023-05-07T07:41:22;5.35;;;2.40;;
27025;SDS011;14565;48.626;8.978;2023-05-07T07:43:47;3.50;;;2.30;;
27025;SDS011;14565;48.626;8.978;2023-05-07T07:46:13;4.95;;;2.20;;
27025;SDS011;14565;48.626;8.978;2023-05-07T07:48:44;4.05;;;2.40;;
27025;SDS011;14565;48.626;8.978;2023-05-07T07:51:12;2.72;;;2.00;;
27025;SDS011;14565;48.626;8.978;2023-05-07T07:53:38;3.10;;;2.30;;
27025;SDS011;14565;48.626;8.978;2023-05-07T07:56:04;4.93;;;2.45;;
27025;SDS011;14565;48.626;8.978;2023-05-07T07:58:32;3.38;;;2.58;;
27025;SDS011;14565;48.626;8.978;2023-05-07T08:03:53;3.50;;;2.60;;
27025;SDS011;14565;48.626;8.978;2023-05-07T08:06:22;5.72;;;3.00;;
27025;SDS011;14565;48.626;8.978;2023-05-07T08:11:53;6.60;;;3.38;;
27025;SDS011;14565;48.626;8.978;2023-05-07T08:14:25;3.80;;;2.30;;
27025;SDS011;14565;48.626;8.978;2023-05-07T08:16:53;3.50;;;2.40;;
27025;SDS011;14565;48.626;8.978;2023-05-07T08:19:19;3.42;;;2.28;;
27025;SDS011;14565;48.626;8.978;2023-05-07T08:21:45;2.38;;;1.90;;
27025;SDS011;14565;48.626;8.978;2023-05-07T08:24:13;2.83;;;1.98;;
27025;SDS011;14565;48.626;8.978;2023-05-07T08:26:42;4.10;;;2.20;;
27025;SDS011;14565;48.626;8.978;2023-05-07T08:29:09;2.92;;;1.98;;
27025;SDS011;14565;48.626;8.978;2023-05-07T08:31:42;2.05;;;1.60;;
27025;SDS011;14565;48.626;8.978;2023-05-07T08:34:08;3.13;;;2.00;;
27025;SDS011;14565;48.626;8.978;2023-05-07T08:36:33;1.85;;;1.75;;
27025;SDS011;14565;48.626;8.978;2023-05-07T08:38:59;4.03;;;2.00;;
27025;SDS011;14565;48.626;8.978;2023-05-07T08:41:30;5.72;;;1.70;;
27025;SDS011;14565;48.626;8.978;2023-05-07T08:43:57;2.72;;;2.00;;
27025;SDS011;14565;48.626;8.978;2023-05-07T08:46:31;2.05;;;1.80;;
27025;SDS011;14565;48.626;8.978;2023-05-07T08:49:04;3.15;;;2.08;;
27025;SDS011;14565;48.626;8.978;2023-05-07T08:51:30;5.43;;;2.30;;
27025;SDS011;14565;48.626;8.978;2023-05-07T08:53:59;2.85;;;1.55;;
27025;SDS011;14565;48.626;8.978;2023-05-07T08:56:35;3.45;;;1.50;;
27025;SDS011;14565;48.626;8.978;2023-05-07T08:59:07;2.60;;;2.10;;
27025;SDS011;14565;48.626;8.978;2023-05-07T09:01:38;3.17;;;1.92;;
27025;SDS011;14565;48.626;8.978;2023-05-07T09:04:09;4.32;;;2.00;;
27025;SDS011;14565;48.626;8.978;2023-05-07T09:06:35;3.35;;;1.83;;
27025;SDS011;14565;48.626;8.978;2023-05-07T09:09:03;2.20;;;1.98;;
27025;SDS011;14565;48.626;8.978;2023-05-07T09:11:30;5.40;;;1.98;;
27025;SDS011;14565;48.626;8.978;2023-05-07T09:13:57;4.75;;;2.10;;
27025;SDS011;14565;48.626;8.978;2023-05-07T09:16:28;4.72;;;2.22;;
27025;SDS011;14565;48.626;8.978;2023-05-07T09:18:58;4.53;;;2.30;;
27025;SDS011;14565;48.626;8.978;2023-05-07T09:21:30;6.03;;;2.60;;
27025;SDS011;14565;48.626;8.978;2023-05-07T09:24:10;4.32;;;2.15;;
27025;SDS011;14565;48.626;8.978;2023-05-07T09:26:49;4.63;;;2.40;;
27025;SDS011;14565;48.626;8.978;2023-05-07T09:29:34;5.57;;;2.50;;
27025;SDS011;14565;48.626;8.978;2023-05-07T09:32:21;2.90;;;2.30;;
27025;SDS011;14565;48.626;8.978;2023-05-07T09:35:01;6.63;;;2.28;;
27025;SDS011;14565;48.626;8.978;2023-05-07T09:41:48;4.65;;;2.20;;
27025;SDS011;14565;48.626;8.978;2023-05-07T09:47:58;3.35;;;2.03;;
27025;SDS011;14565;48.626;8.978;2023-05-07T09:50:58;3.08;;;2.05;;
27025;SDS011;14565;48.626;8.978;2023-05-07T09:53:25;2.63;;;1.85;;
27025;SDS011;14565;48.626;8.978;2023-05-07T09:56:22;3.60;;;1.90;;
27025;SDS011;14565;48.626;8.978;2023-05-07T09:59:19;3.25;;;2.22;;
27025;SDS011;14565;48.626;8.978;2023-05-07T10:01:59;5.65;;;2.17;;
27025;SDS011;14565;48.626;8.978;2023-05-07T10:04:50;3.83;;;2.08;;
27025;SDS011;14565;48.626;8.978;2023-05-07T10:07:32;4.25;;;2.55;;
27025;SDS011;14565;48.626;8.978;2023-05-07T10:10:46;4.38;;;2.13;;
27025;SDS011;14565;48.626;8.978;2023-05-07T10:13:21;4.63;;;1.92;;
27025;SDS011;14565;48.626;8.978;2023-05-07T10:19:16;3.60;;;2.13;;
27025;SDS011;14565;48.626;8.978;2023-05-07T10:22:05;4.03;;;2.40;;
27025;SDS011;14565;48.626;8.978;2023-05-07T10:24:41;3.33;;;2.25;;
27025;SDS011;14565;48.626;8.978;2023-05-07T10:27:20;2.97;;;1.98;;
27025;SDS011;14565;48.626;8.978;2023-05-07T10:30:26;3.40;;;2.40;;
27025;SDS011;14565;48.626;8.978;2023-05-07T10:36:08;3.30;;;2.17;;
27025;SDS011;14565;48.626;8.978;2023-05-07T10:38:44;3.35;;;2.20;;
27025;SDS011;14565;48.626;8.978;2023-05-07T10:41:55;4.47;;;2.47;;
27025;SDS011;14565;48.626;8.978;2023-05-07T10:44:44;2.92;;;2.08;;
27025;SDS011;14565;48.626;8.978;2023-05-07T10:47:28;3.13;;;2.13;;
27025;SDS011;14565;48.626;8.978;2023-05-07T10:53:10;3.05;;;2.08;;
27025;SDS011;14565;48.626;8.978;2023-05-07T11:02:18;3.10;;;2.13;;
27025;SDS011;14565;48.626;8.978;2023-05-07T11:05:29;2.92;;;2.00;;
27025;SDS011;14565;48.626;8.978;2023-05-07T11:10:53;5.20;;;2.17;;
27025;SDS011;14565;48.626;8.978;2023-05-07T11:13:48;3.97;;;2.00;;
27025;SDS011;14565;48.626;8.978;2023-05-07T11:16:30;4.53;;;2.00;;
27025;SDS011;14565;48.626;8.978;2023-05-07T11:28:56;3.95;;;2.20;;
27025;SDS011;14565;48.626;8.978;2023-05-07T11:31:54;2.28;;;1.85;;
27025;SDS011;14565;48.626;8.978;2023-05-07T11:34:39;4.80;;;2.22;;
27025;SDS011;14565;48.626;8.978;2023-05-07T11:37:16;4.57;;;2.58;;
27025;SDS011;14565;48.626;8.978;2023-05-07T11:39:43;3.60;;;2.45;;
27025;SDS011;14565;48.626;8.978;2023-05-07T11:42:29;3.38;;;2.30;;
27025;SDS011;14565;48.626;8.978;2023-05-07T11:44:58;2.27;;;2.07;;
27025;SDS011;14565;48.626;8.978;2023-05-07T11:47:29;2.92;;;2.38;;
27025;SDS011;14565;48.626;8.978;2023-05-07T11:50:33;4.32;;;2.17;;
27025;SDS011;14565;48.626;8.978;2023-05-07T11:53:00;3.58;;;2.63;;
27025;SDS011;14565;48.626;8.978;2023-05-07T11:55:42;5.53;;;2.38;;
27025;SDS011;14565;48.626;8.978;2023-05-07T11:58:09;4.90;;;2.53;;
27025;SDS011;14565;48.626;8.978;2023-05-07T12:01:03;2.63;;;2.25;;
27025;SDS011;14565;48.626;8.978;2023-05-07T12:04:10;3.88;;;2.30;;
27025;SDS011;14565;48.626;8.978;2023-05-07T12:06:44;3.83;;;2.65;;
27025;SDS011;14565;48.626;8.978;2023-05-07T12:09:19;6.22;;;2.65;;
27025;SDS011;14565;48.626;8.978;2023-05-07T12:12:19;5.47;;;3.20;;
27025;SDS011;14565;48.626;8.978;2023-05-07T12:18:14;5.15;;;2.78;;
27025;SDS011;14565;48.626;8.978;2023-05-07T12:21:31;4.75;;;2.17;;
27025;SDS011;14565;48.626;8.978;2023-05-07T12:24:39;4.25;;;1.88;;
27025;SDS011;14565;48.626;8.978;2023-05-07T12:28:12;15.82;;;3.90;;
27025;SDS011;14565;48.626;8.978;2023-05-07T12:31:05;9.13;;;3.53;;
27025;SDS011;14565;48.626;8.978;2023-05-07T12:34:03;5.68;;;2.80;;
27025;SDS011;14565;48.626;8.978;2023-05-07T13:01:01;9.60;;;3.70;;
27025;SDS011;14565;48.626;8.978;2023-05-07T13:07:26;8.40;;;3.72;;
27025;SDS011;14565;48.626;8.978;2023-05-07T13:10:33;9.55;;;4.72;;
27025;SDS011;14565;48.626;8.978;2023-05-07T13:13:10;11.15;;;7.15;;
27025;SDS011;14565;48.626;8.978;2023-05-07T13:15:49;15.75;;;7.03;;
27025;SDS011;14565;48.626;8.978;2023-05-07T13:18:14;15.63;;;7.97;;
27025;SDS011;14565;48.626;8.978;2023-05-07T13:20:40;11.43;;;8.07;;
27025;SDS011;14565;48.626;8.978;2023-05-07T13:23:20;13.68;;;8.00;;
27025;SDS011;14565;48.626;8.978;2023-05-07T13:25:46;11.13;;;7.88;;
27025;SDS011;14565;48.626;8.978;2023-05-07T13:28:33;14.65;;;9.27;;
27025;SDS011;14565;48.626;8.978;2023-05-07T13:31:02;15.45;;;8.18;;
27025;SDS011;14565;48.626;8.978;2023-05-07T13:33:27;9.73;;;7.30;;
27025;SDS011;14565;48.626;8.978;2023-05-07T13:35:53;10.27;;;6.78;;
27025;SDS011;14565;48.626;8.978;2023-05-07T13:38:21;12.27;;;7.40;;
27025;SDS011;14565;48.626;8.978;2023-05-07T13:40:53;17.40;;;6.55;;
27025;SDS011;14565;48.626;8.978;2023-05-07T13:43:19;11.20;;;7.00;;
27025;SDS011;14565;48.626;8.978;2023-05-07T13:45:51;12.88;;;7.05;;
27025;SDS011;14565;48.626;8.978;2023-05-07T13:48:17;12.20;;;6.60;;
27025;SDS011;14565;48.626;8.978;2023-05-07T13:50:45;12.60;;;6.57;;
27025;SDS011;14565;48.626;8.978;2023-05-07T13:53:11;9.90;;;6.60;;
27025;SDS011;14565;48.626;8.978;2023-05-07T13:55:37;16.75;;;7.40;;
27025;SDS011;14565;48.626;8.978;2023-05-07T13:58:02;14.48;;;6.10;;
27025;SDS011;14565;48.626;8.978;2023-05-07T14:00:49;14.23;;;6.20;;
27025;SDS011;14565;48.626;8.978;2023-05-07T14:03:17;10.13;;;6.50;;
27025;SDS011;14565;48.626;8.978;2023-05-07T14:05:47;14.50;;;6.97;;
27025;SDS011;14565;48.626;8.978;2023-05-07T14:08:16;12.23;;;7.75;;
27025;SDS011;14565;48.626;8.978;2023-05-07T14:10:44;15.52;;;7.05;;
27025;SDS011;14565;48.626;8.978;2023-05-07T14:13:14;13.93;;;6.97;;
27025;SDS011;14565;48.626;8.978;2023-05-07T14:15:45;17.30;;;6.95;;
27025;SDS011;14565;48.626;8.978;2023-05-07T14:18:17;12.00;;;6.47;;
27025;SDS011;14565;48.626;8.978;2023-05-07T14:20:45;8.85;;;5.70;;
27025;SDS011;14565;48.626;8.978;2023-05-07T14:23:14;12.77;;;6.80;;
27025;SDS011;14565;48.626;8.978;2023-05-07T14:25:40;12.38;;;6.65;;
27025;SDS011;14565;48.626;8.978;2023-05-07T14:28:14;10.70;;;5.90;;
27025;SDS011;14565;48.626;8.978;2023-05-07T14:30:42;10.07;;;5.93;;
27025;SDS011;14565;48.626;8.978;2023-05-07T14:33:14;10.20;;;6.25;;
27025;SDS011;14565;48.626;8.978;2023-05-07T14:35:40;10.40;;;7.32;;
27025;SDS011;14565;48.626;8.978;2023-05-07T14:38:15;11.13;;;7.10;;
27025;SDS011;14565;48.626;8.978;2023-05-07T14:40:41;12.77;;;7.50;;
27025;SDS011;14565;48.626;8.978;2023-05-07T14:43:18;8.90;;;6.03;;
27025;SDS011;14565;48.626;8.978;2023-05-07T14:45:53;20.42;;;10.73;;
27025;SDS011;14565;48.626;8.978;2023-05-07T14:48:19;12.07;;;6.60;;
27025;SDS011;14565;48.626;8.978;2023-05-07T14:50:54;9.63;;;6.68;;
27025;SDS011;14565;48.626;8.978;2023-05-07T14:53:21;12.57;;;7.22;;
27025;SDS011;14565;48.626;8.978;2023-05-07T14:55:50;18.73;;;9.32;;
27025;SDS011;14565;48.626;8.978;2023-05-07T14:58:16;11.55;;;7.93;;
27025;SDS011;14565;48.626;8.978;2023-05-07T15:00:42;12.57;;;7.10;;
27025;SDS011;14565;48.626;8.978;2023-05-07T15:03:09;11.00;;;6.88;;
27025;SDS011;14565;48.626;8.978;2023-05-07T15:05:38;8.65;;;7.55;;
27025;SDS011;14565;48.626;8.978;2023-05-07T15:08:04;9.93;;;6.70;;
27025;SDS011;14565;48.626;8.978;2023-05-07T15:10:30;10.93;;;7.75;;
27025;SDS011;14565;48.626;8.978;2023-05-07T15:12:55;11.40;;;7.40;;
27025;SDS011;14565;48.626;8.978;2023-05-07T15:15:21;10.20;;;8.45;;
27025;SDS011;14565;48.626;8.978;2023-05-07T15:17:47;11.43;;;6.32;;
27025;SDS011;14565;48.626;8.978;2023-05-07T15:20:12;11.48;;;6.60;;
27025;SDS011;14565;48.626;8.978;2023-05-07T15:22:38;9.02;;;6.43;;
27025;SDS011;14565;48.626;8.978;2023-05-07T15:25:04;9.45;;;7.28;;
27025;SDS011;14565;48.626;8.978;2023-05-07T15:27:30;8.63;;;6.78;;
27025;SDS011;14565;48.626;8.978;2023-05-07T15:29:56;13.05;;;7.10;;
27025;SDS011;14565;48.626;8.978;2023-05-07T15:32:22;12.45;;;7.13;;
27025;SDS011;14565;48.626;8.978;2023-05-07T15:34:48;8.45;;;6.82;;
27025;SDS011;14565;48.626;8.978;2023-05-07T15:37:14;8.18;;;6.63;;
27025;SDS011;14565;48.626;8.978;2023-05-07T15:39:42;9.93;;;6.65;;
27025;SDS011;14565;48.626;8.978;2023-05-07T15:42:11;7.68;;;5.68;;
27025;SDS011;14565;48.626;8.978;2023-05-07T15:44:37;6.45;;;5.53;;
27025;SDS011;14565;48.626;8.978;2023-05-07T15:47:13;9.93;;;4.45;;
27025;SDS011;14565;48.626;8.978;2023-05-07T15:49:56;5.63;;;3.95;;
27025;SDS011;14565;48.626;8.978;2023-05-07T15:52:25;6.80;;;3.70;;
27025;SDS011;14565;48.626;8.978;2023-05-07T15:54:58;5.90;;;3.58;;
27025;SDS011;14565;48.626;8.978;2023-05-07T15:57:30;4.80;;;3.53;;
27025;SDS011;14565;48.626;8.978;2023-05-07T15:59:56;4.88;;;3.22;;
27025;SDS011;14565;48.626;8.978;2023-05-07T16:02:23;7.43;;;3.65;;
27025;SDS011;14565;48.626;8.978;2023-05-07T16:04:49;5.13;;;3.08;;
27025;SDS011;14565;48.626;8.978;2023-05-07T16:07:15;5.30;;;2.85;;
27025;SDS011;14565;48.626;8.978;2023-05-07T16:09:46;5.80;;;3.05;;
27025;SDS011;14565;48.626;8.978;2023-05-07T16:12:17;5.95;;;2.80;;
27025;SDS011;14565;48.626;8.978;2023-05-07T16:14:52;4.68;;;3.00;;
27025;SDS011;14565;48.626;8.978;2023-05-07T16:17:26;4.50;;;2.55;;
27025;SDS011;14565;48.626;8.978;2023-05-07T16:19:57;3.00;;;2.70;;
27025;SDS011;14565;48.626;8.978;2023-05-07T16:22:24;7.20;;;2.63;;